sensor_id;sensor_type;location;lat;lon;timestamp;P1;durP1;ratioP1;P2;durP2;ratioP2
8088;SDS011;57635;49.194;12.104;2022-07-04T00:00:19;2.50;;;2.30;;
8088;SDS011;57635;49.194;12.104;2022-07-04T00:02:47;1.97;;;1.87;;
8088;SDS011;57635;49.194;12.104;2022-07-04T00:05:16;1.80;;;1.70;;
8088;SDS011;57635;49.194;12.104;2022-07-04T00:07:45;2.80;;;2.60;;
8088;SDS011;57635;49.194;12.104;2022-07-04T00:10:21;2.27;;;2.07;;
8088;SDS011;57635;49.194;12.104;2022-07-04T00:12:49;1.97;;;1.87;;
8088;SDS011;57635;49.194;12.104;2022-07-04T00:15:19;2.40;;;2.30;;
8088;SDS011;57635;49.194;12.104;2022-07-04T00:17:48;3.37;;;2.77;;
8088;SDS011;57635;49.194;12.104;2022-07-04T00:20:16;2.23;;;2.13;;
8088;SDS011;57635;49.194;12.104;2022-07-04T00:22:45;2.13;;;2.03;;
8088;SDS011;57635;49.194;12.104;2022-07-04T00:25:13;1.93;;;1.80;;
8088;SDS011;57635;49.194;12.104;2022-07-04T00:27:41;2.10;;;2.00;;
8088;SDS011;57635;49.194;12.104;2022-07-04T00:30:10;2.00;;;1.90;;
8088;SDS011;57635;49.194;12.104;2022-07-04T00:32:40;2.17;;;2.07;;
8088;SDS011;57635;49.194;12.104;2022-07-04T00:35:08;2.63;;;2.53;;
8088;SDS011;57635;49.194;12.104;2022-07-04T00:37:36;2.60;;;2.43;;
8088;SDS011;57635;49.194;12.104;2022-07-04T00:40:05;2.10;;;2.00;;
8088;SDS011;57635;49.194;12.104;2022-07-04T00:42:33;2.67;;;2.50;;
8088;SDS011;57635;49.194;12.104;2022-07-04T00:45:02;2.07;;;2.00;;
8088;SDS011;57635;49.194;12.104;2022-07-04T00:47:30;2.33;;;2.23;;
8088;SDS011;57635;49.194;12.104;2022-07-04T00:50:01;2.43;;;2.23;;
8088;SDS011;57635;49.194;12.104;2022-07-04T00:52:29;2.60;;;2.50;;
8088;SDS011;57635;49.194;12.104;2022-07-04T00:54:57;2.27;;;2.17;;
8088;SDS011;57635;49.194;12.104;2022-07-04T00:57:27;2.33;;;2.10;;
8088;SDS011;57635;49.194;12.104;2022-07-04T00:59:55;3.07;;;2.50;;
8088;SDS011;57635;49.194;12.104;2022-07-04T01:02:24;2.60;;;2.40;;
8088;SDS011;57635;49.194;12.104;2022-07-04T01:04:52;3.20;;;2.10;;
8088;SDS011;57635;49.194;12.104;2022-07-04T01:07:21;2.40;;;2.20;;
8088;SDS011;57635;49.194;12.104;2022-07-04T01:09:50;2.17;;;1.97;;
8088;SDS011;57635;49.194;12.104;2022-07-04T01:12:25;2.20;;;2.10;;
8088;SDS011;57635;49.194;12.104;2022-07-04T01:14:54;3.33;;;2.10;;
8088;SDS011;57635;49.194;12.104;2022-07-04T01:17:22;2.23;;;2.03;;
8088;SDS011;57635;49.194;12.104;2022-07-04T01:19:50;2.97;;;2.77;;
8088;SDS011;57635;49.194;12.104;2022-07-04T01:22:20;6.23;;;2.47;;
8088;SDS011;57635;49.194;12.104;2022-07-04T01:24:49;2.40;;;2.30;;
8088;SDS011;57635;49.194;12.104;2022-07-04T01:27:17;3.23;;;2.20;;
8088;SDS011;57635;49.194;12.104;2022-07-04T01:29:45;2.07;;;2.07;;
8088;SDS011;57635;49.194;12.104;2022-07-04T01:32:14;3.27;;;3.07;;
8088;SDS011;57635;49.194;12.104;2022-07-04T01:34:42;2.43;;;2.33;;
8088;SDS011;57635;49.194;12.104;2022-07-04T01:37:10;2.67;;;2.40;;
8088;SDS011;57635;49.194;12.104;2022-07-04T01:39:40;2.47;;;2.37;;
8088;SDS011;57635;49.194;12.104;2022-07-04T01:42:09;2.10;;;2.00;;
8088;SDS011;57635;49.194;12.104;2022-07-04T01:44:37;2.50;;;2.40;;
8088;SDS011;57635;49.194;12.104;2022-07-04T01:47:05;2.37;;;2.27;;
8088;SDS011;57635;49.194;12.104;2022-07-04T01:49:33;2.37;;;2.27;;
8088;SDS011;57635;49.194;12.104;2022-07-04T01:52:02;2.40;;;2.30;;
8088;SDS011;57635;49.194;12.104;2022-07-04T01:54:30;3.60;;;3.40;;
8088;SDS011;57635;49.194;12.104;2022-07-04T01:57:00;2.53;;;2.43;;
8088;SDS011;57635;49.194;12.104;2022-07-04T01:59:28;2.30;;;2.20;;
8088;SDS011;57635;49.194;12.104;2022-07-04T02:02:19;2.70;;;2.50;;
8088;SDS011;57635;49.194;12.104;2022-07-04T02:04:47;2.20;;;2.00;;
8088;SDS011;57635;49.194;12.104;2022-07-04T02:07:16;2.50;;;2.40;;
8088;SDS011;57635;49.194;12.104;2022-07-04T02:09:45;2.50;;;2.40;;
8088;SDS011;57635;49.194;12.104;2022-07-04T02:12:14;2.10;;;2.00;;
8088;SDS011;57635;49.194;12.104;2022-07-04T02:15:00;2.17;;;2.00;;
8088;SDS011;57635;49.194;12.104;2022-07-04T02:17:28;2.10;;;2.00;;
8088;SDS011;57635;49.194;12.104;2022-07-04T02:19:56;2.20;;;2.10;;
8088;SDS011;57635;49.194;12.104;2022-07-04T02:22:24;2.20;;;2.10;;
8088;SDS011;57635;49.194;12.104;2022-07-04T02:24:53;2.07;;;1.97;;
8088;SDS011;57635;49.194;12.104;2022-07-04T02:27:23;2.13;;;2.03;;
8088;SDS011;57635;49.194;12.104;2022-07-04T02:29:51;2.30;;;2.20;;
8088;SDS011;57635;49.194;12.104;2022-07-04T02:32:19;2.40;;;2.20;;
8088;SDS011;57635;49.194;12.104;2022-07-04T02:34:47;3.03;;;2.27;;
8088;SDS011;57635;49.194;12.104;2022-07-04T02:37:15;4.53;;;2.23;;
8088;SDS011;57635;49.194;12.104;2022-07-04T02:39:44;2.30;;;2.20;;
8088;SDS011;57635;49.194;12.104;2022-07-04T02:42:12;2.33;;;2.10;;
8088;SDS011;57635;49.194;12.104;2022-07-04T02:44:42;2.50;;;2.33;;
8088;SDS011;57635;49.194;12.104;2022-07-04T02:47:11;2.57;;;2.37;;
8088;SDS011;57635;49.194;12.104;2022-07-04T02:49:39;2.43;;;2.33;;
8088;SDS011;57635;49.194;12.104;2022-07-04T02:52:08;2.20;;;2.10;;
8088;SDS011;57635;49.194;12.104;2022-07-04T02:54:36;2.50;;;1.90;;
8088;SDS011;57635;49.194;12.104;2022-07-04T02:57:04;2.67;;;2.37;;
8088;SDS011;57635;49.194;12.104;2022-07-04T02:59:33;2.13;;;2.03;;
8088;SDS011;57635;49.194;12.104;2022-07-04T03:02:02;2.10;;;2.00;;
8088;SDS011;57635;49.194;12.104;2022-07-04T03:04:31;2.00;;;1.90;;
8088;SDS011;57635;49.194;12.104;2022-07-04T03:06:59;3.43;;;2.47;;
8088;SDS011;57635;49.194;12.104;2022-07-04T03:09:27;2.10;;;2.00;;
8088;SDS011;57635;49.194;12.104;2022-07-04T03:11:55;2.30;;;2.20;;
8088;SDS011;57635;49.194;12.104;2022-07-04T03:14:23;2.00;;;1.90;;
8088;SDS011;57635;49.194;12.104;2022-07-04T03:16:51;2.23;;;2.13;;
8088;SDS011;57635;49.194;12.104;2022-07-04T03:19:21;2.57;;;2.47;;
8088;SDS011;57635;49.194;12.104;2022-07-04T03:21:49;2.50;;;2.40;;
8088;SDS011;57635;49.194;12.104;2022-07-04T03:24:17;3.90;;;2.60;;
8088;SDS011;57635;49.194;12.104;2022-07-04T03:26:45;2.93;;;2.37;;
8088;SDS011;57635;49.194;12.104;2022-07-04T03:29:13;2.50;;;2.40;;
8088;SDS011;57635;49.194;12.104;2022-07-04T03:31:41;2.73;;;2.60;;
8088;SDS011;57635;49.194;12.104;2022-07-04T03:34:10;2.83;;;2.63;;
8088;SDS011;57635;49.194;12.104;2022-07-04T03:36:39;2.30;;;2.20;;
8088;SDS011;57635;49.194;12.104;2022-07-04T03:39:08;4.77;;;3.03;;
8088;SDS011;57635;49.194;12.104;2022-07-04T03:41:36;2.70;;;2.53;;
8088;SDS011;57635;49.194;12.104;2022-07-04T03:44:04;2.10;;;2.10;;
8088;SDS011;57635;49.194;12.104;2022-07-04T03:46:32;2.83;;;2.67;;
8088;SDS011;57635;49.194;12.104;2022-07-04T03:49:00;2.50;;;2.40;;
8088;SDS011;57635;49.194;12.104;2022-07-04T03:51:28;2.17;;;2.07;;
8088;SDS011;57635;49.194;12.104;2022-07-04T03:53:58;3.37;;;2.90;;
8088;SDS011;57635;49.194;12.104;2022-07-04T03:56:26;2.47;;;2.27;;
8088;SDS011;57635;49.194;12.104;2022-07-04T03:58:54;3.23;;;2.17;;
8088;SDS011;57635;49.194;12.104;2022-07-04T04:01:22;2.53;;;2.43;;
8088;SDS011;57635;49.194;12.104;2022-07-04T04:03:50;2.90;;;2.63;;
8088;SDS011;57635;49.194;12.104;2022-07-04T04:06:36;3.03;;;2.40;;
8088;SDS011;57635;49.194;12.104;2022-07-04T04:09:06;3.10;;;2.90;;
8088;SDS011;57635;49.194;12.104;2022-07-04T04:11:38;3.73;;;2.50;;
8088;SDS011;57635;49.194;12.104;2022-07-04T04:14:07;2.40;;;2.17;;
8088;SDS011;57635;49.194;12.104;2022-07-04T04:16:35;3.90;;;2.53;;
8088;SDS011;57635;49.194;12.104;2022-07-04T04:19:03;3.37;;;2.60;;
8088;SDS011;57635;49.194;12.104;2022-07-04T04:21:31;4.23;;;2.77;;
8088;SDS011;57635;49.194;12.104;2022-07-04T04:23:59;2.70;;;2.60;;
8088;SDS011;57635;49.194;12.104;2022-07-04T04:26:29;4.23;;;3.07;;
8088;SDS011;57635;49.194;12.104;2022-07-04T04:28:57;2.30;;;2.20;;
8088;SDS011;57635;49.194;12.104;2022-07-04T04:31:25;5.90;;;2.83;;
8088;SDS011;57635;49.194;12.104;2022-07-04T04:33:53;3.03;;;2.83;;
8088;SDS011;57635;49.194;12.104;2022-07-04T04:36:21;2.83;;;2.60;;
8088;SDS011;57635;49.194;12.104;2022-07-04T04:38:49;4.60;;;3.00;;
8088;SDS011;57635;49.194;12.104;2022-07-04T04:41:17;3.80;;;3.40;;
8088;SDS011;57635;49.194;12.104;2022-07-04T04:43:47;4.73;;;4.20;;
8088;SDS011;57635;49.194;12.104;2022-07-04T04:46:18;3.00;;;2.70;;
8088;SDS011;57635;49.194;12.104;2022-07-04T04:48:47;2.83;;;2.63;;
8088;SDS011;57635;49.194;12.104;2022-07-04T04:51:15;2.77;;;2.57;;
8088;SDS011;57635;49.194;12.104;2022-07-04T04:53:43;3.40;;;2.77;;
8088;SDS011;57635;49.194;12.104;2022-07-04T04:56:11;3.83;;;2.60;;
8088;SDS011;57635;49.194;12.104;2022-07-04T04:58:39;2.43;;;2.33;;
8088;SDS011;57635;49.194;12.104;2022-07-04T05:01:08;2.73;;;2.53;;
8088;SDS011;57635;49.194;12.104;2022-07-04T05:03:57;3.00;;;2.80;;
8088;SDS011;57635;49.194;12.104;2022-07-04T05:06:25;2.30;;;2.20;;
8088;SDS011;57635;49.194;12.104;2022-07-04T05:08:53;2.77;;;2.63;;
8088;SDS011;57635;49.194;12.104;2022-07-04T05:11:21;3.03;;;2.60;;
8088;SDS011;57635;49.194;12.104;2022-07-04T05:13:49;2.63;;;2.43;;
8088;SDS011;57635;49.194;12.104;2022-07-04T05:16:19;2.40;;;2.30;;
8088;SDS011;57635;49.194;12.104;2022-07-04T05:18:47;2.80;;;2.60;;
8088;SDS011;57635;49.194;12.104;2022-07-04T05:21:15;3.33;;;3.23;;
8088;SDS011;57635;49.194;12.104;2022-07-04T05:23:43;3.20;;;2.90;;
8088;SDS011;57635;49.194;12.104;2022-07-04T05:26:11;2.80;;;2.67;;
8088;SDS011;57635;49.194;12.104;2022-07-04T05:28:39;5.80;;;2.90;;
8088;SDS011;57635;49.194;12.104;2022-07-04T05:31:07;2.33;;;2.23;;
8088;SDS011;57635;49.194;12.104;2022-07-04T05:33:36;3.07;;;2.83;;
8088;SDS011;57635;49.194;12.104;2022-07-04T05:36:05;4.33;;;2.90;;
8088;SDS011;57635;49.194;12.104;2022-07-04T05:38:33;5.37;;;3.00;;
8088;SDS011;57635;49.194;12.104;2022-07-04T05:41:01;3.97;;;2.90;;
8088;SDS011;57635;49.194;12.104;2022-07-04T05:43:30;4.30;;;2.93;;
8088;SDS011;57635;49.194;12.104;2022-07-04T05:45:58;2.80;;;2.70;;
8088;SDS011;57635;49.194;12.104;2022-07-04T05:48:26;3.73;;;3.50;;
8088;SDS011;57635;49.194;12.104;2022-07-04T05:50:55;5.77;;;4.03;;
8088;SDS011;57635;49.194;12.104;2022-07-04T05:53:24;3.90;;;3.60;;
8088;SDS011;57635;49.194;12.104;2022-07-04T05:55:52;5.17;;;4.33;;
8088;SDS011;57635;49.194;12.104;2022-07-04T05:58:20;4.60;;;4.20;;
8088;SDS011;57635;49.194;12.104;2022-07-04T06:00:48;4.20;;;3.80;;
8088;SDS011;57635;49.194;12.104;2022-07-04T06:03:16;3.83;;;3.53;;
8088;SDS011;57635;49.194;12.104;2022-07-04T06:05:49;3.70;;;3.50;;
8088;SDS011;57635;49.194;12.104;2022-07-04T06:08:20;3.60;;;3.40;;
8088;SDS011;57635;49.194;12.104;2022-07-04T06:10:49;3.63;;;3.33;;
8088;SDS011;57635;49.194;12.104;2022-07-04T06:13:17;3.70;;;3.50;;
8088;SDS011;57635;49.194;12.104;2022-07-04T06:15:45;4.20;;;3.40;;
8088;SDS011;57635;49.194;12.104;2022-07-04T06:18:13;4.03;;;3.63;;
8088;SDS011;57635;49.194;12.104;2022-07-04T06:20:41;3.73;;;3.37;;
8088;SDS011;57635;49.194;12.104;2022-07-04T06:23:09;3.30;;;3.10;;
8088;SDS011;57635;49.194;12.104;2022-07-04T06:25:39;3.60;;;3.27;;
8088;SDS011;57635;49.194;12.104;2022-07-04T06:28:07;3.93;;;3.47;;
8088;SDS011;57635;49.194;12.104;2022-07-04T06:30:56;4.10;;;3.40;;
8088;SDS011;57635;49.194;12.104;2022-07-04T06:33:24;3.47;;;2.73;;
8088;SDS011;57635;49.194;12.104;2022-07-04T06:35:52;4.80;;;3.83;;
8088;SDS011;57635;49.194;12.104;2022-07-04T06:38:21;3.93;;;3.53;;
8088;SDS011;57635;49.194;12.104;2022-07-04T06:40:53;4.00;;;3.70;;
8088;SDS011;57635;49.194;12.104;2022-07-04T06:43:21;3.83;;;3.60;;
8088;SDS011;57635;49.194;12.104;2022-07-04T06:45:50;3.90;;;3.60;;
8088;SDS011;57635;49.194;12.104;2022-07-04T06:48:18;3.77;;;3.50;;
8088;SDS011;57635;49.194;12.104;2022-07-04T06:50:47;5.53;;;3.80;;
8088;SDS011;57635;49.194;12.104;2022-07-04T06:53:15;4.27;;;3.70;;
8088;SDS011;57635;49.194;12.104;2022-07-04T06:55:43;4.80;;;3.87;;
8088;SDS011;57635;49.194;12.104;2022-07-04T06:58:13;5.23;;;3.90;;
8088;SDS011;57635;49.194;12.104;2022-07-04T07:00:41;4.43;;;3.47;;
8088;SDS011;57635;49.194;12.104;2022-07-04T07:03:10;3.37;;;3.17;;
8088;SDS011;57635;49.194;12.104;2022-07-04T07:05:38;3.87;;;3.50;;
8088;SDS011;57635;49.194;12.104;2022-07-04T07:08:27;3.80;;;3.60;;
8088;SDS011;57635;49.194;12.104;2022-07-04T07:10:55;3.90;;;3.60;;
8088;SDS011;57635;49.194;12.104;2022-07-04T07:13:25;3.97;;;3.67;;
8088;SDS011;57635;49.194;12.104;2022-07-04T07:15:53;3.27;;;3.07;;
8088;SDS011;57635;49.194;12.104;2022-07-04T07:18:21;3.77;;;3.47;;
8088;SDS011;57635;49.194;12.104;2022-07-04T07:20:49;3.27;;;3.03;;
8088;SDS011;57635;49.194;12.104;2022-07-04T07:23:18;3.20;;;2.97;;
8088;SDS011;57635;49.194;12.104;2022-07-04T07:25:46;6.07;;;3.90;;
8088;SDS011;57635;49.194;12.104;2022-07-04T07:28:14;3.50;;;3.30;;
8088;SDS011;57635;49.194;12.104;2022-07-04T07:30:43;4.87;;;3.53;;
8088;SDS011;57635;49.194;12.104;2022-07-04T07:33:12;5.13;;;3.70;;
8088;SDS011;57635;49.194;12.104;2022-07-04T07:35:40;3.53;;;3.33;;
8088;SDS011;57635;49.194;12.104;2022-07-04T07:38:08;5.30;;;3.47;;
8088;SDS011;57635;49.194;12.104;2022-07-04T07:40:36;4.00;;;3.70;;
8088;SDS011;57635;49.194;12.104;2022-07-04T07:43:04;3.80;;;3.50;;
8088;SDS011;57635;49.194;12.104;2022-07-04T07:45:32;5.17;;;3.57;;
8088;SDS011;57635;49.194;12.104;2022-07-04T07:48:02;5.50;;;5.10;;
8088;SDS011;57635;49.194;12.104;2022-07-04T07:50:31;4.23;;;3.97;;
8088;SDS011;57635;49.194;12.104;2022-07-04T07:52:59;4.63;;;3.50;;
8088;SDS011;57635;49.194;12.104;2022-07-04T07:55:27;5.20;;;4.37;;
8088;SDS011;57635;49.194;12.104;2022-07-04T07:57:55;4.00;;;3.70;;
8088;SDS011;57635;49.194;12.104;2022-07-04T08:00:25;4.00;;;3.63;;
8088;SDS011;57635;49.194;12.104;2022-07-04T08:03:16;5.20;;;3.53;;
8088;SDS011;57635;49.194;12.104;2022-07-04T08:06:02;3.57;;;3.33;;
8088;SDS011;57635;49.194;12.104;2022-07-04T08:08:30;3.90;;;3.50;;
8088;SDS011;57635;49.194;12.104;2022-07-04T08:10:58;3.53;;;3.23;;
8088;SDS011;57635;49.194;12.104;2022-07-04T08:13:27;6.33;;;3.27;;
8088;SDS011;57635;49.194;12.104;2022-07-04T08:15:55;4.73;;;3.70;;
8088;SDS011;57635;49.194;12.104;2022-07-04T08:18:24;6.27;;;3.50;;
8088;SDS011;57635;49.194;12.104;2022-07-04T08:20:53;6.37;;;3.70;;
8088;SDS011;57635;49.194;12.104;2022-07-04T08:23:28;3.93;;;3.63;;
8088;SDS011;57635;49.194;12.104;2022-07-04T08:25:57;3.70;;;3.40;;
8088;SDS011;57635;49.194;12.104;2022-07-04T08:28:25;3.57;;;3.37;;
8088;SDS011;57635;49.194;12.104;2022-07-04T08:30:56;4.17;;;3.63;;
8088;SDS011;57635;49.194;12.104;2022-07-04T08:33:26;3.80;;;3.13;;
8088;SDS011;57635;49.194;12.104;2022-07-04T08:36:00;4.10;;;3.90;;
8088;SDS011;57635;49.194;12.104;2022-07-04T08:38:29;3.63;;;3.33;;
8088;SDS011;57635;49.194;12.104;2022-07-04T08:40:57;4.00;;;3.70;;
8088;SDS011;57635;49.194;12.104;2022-07-04T08:43:26;4.37;;;4.07;;
8088;SDS011;57635;49.194;12.104;2022-07-04T08:45:55;5.57;;;5.10;;
8088;SDS011;57635;49.194;12.104;2022-07-04T08:48:50;4.20;;;3.90;;
8088;SDS011;57635;49.194;12.104;2022-07-04T08:51:21;7.23;;;6.83;;
8088;SDS011;57635;49.194;12.104;2022-07-04T08:53:55;5.67;;;5.17;;
8088;SDS011;57635;49.194;12.104;2022-07-04T08:56:25;5.43;;;4.97;;
8088;SDS011;57635;49.194;12.104;2022-07-04T08:59:10;7.30;;;3.27;;
8088;SDS011;57635;49.194;12.104;2022-07-04T09:01:39;2.70;;;2.50;;
8088;SDS011;57635;49.194;12.104;2022-07-04T09:04:09;3.40;;;2.60;;
8088;SDS011;57635;49.194;12.104;2022-07-04T09:06:38;4.50;;;2.43;;
8088;SDS011;57635;49.194;12.104;2022-07-04T09:09:07;3.07;;;2.90;;
8088;SDS011;57635;49.194;12.104;2022-07-04T09:11:35;2.70;;;2.60;;
8088;SDS011;57635;49.194;12.104;2022-07-04T09:14:03;6.37;;;2.77;;
8088;SDS011;57635;49.194;12.104;2022-07-04T09:16:31;2.83;;;2.67;;
8088;SDS011;57635;49.194;12.104;2022-07-04T09:19:00;3.13;;;2.83;;
8088;SDS011;57635;49.194;12.104;2022-07-04T09:24:13;2.77;;;2.57;;
8088;SDS011;57635;49.194;12.104;2022-07-04T09:26:41;4.33;;;2.50;;
8088;SDS011;57635;49.194;12.104;2022-07-04T09:29:11;2.33;;;2.23;;
8088;SDS011;57635;49.194;12.104;2022-07-04T09:31:40;2.57;;;2.37;;
8088;SDS011;57635;49.194;12.104;2022-07-04T09:34:09;2.50;;;2.40;;
8088;SDS011;57635;49.194;12.104;2022-07-04T09:36:39;2.20;;;2.07;;
8088;SDS011;57635;49.194;12.104;2022-07-04T09:39:11;2.60;;;2.40;;
8088;SDS011;57635;49.194;12.104;2022-07-04T09:41:51;3.03;;;2.70;;
8088;SDS011;57635;49.194;12.104;2022-07-04T09:44:23;4.60;;;2.37;;
8088;SDS011;57635;49.194;12.104;2022-07-04T09:46:52;2.93;;;2.63;;
8088;SDS011;57635;49.194;12.104;2022-07-04T09:49:20;10.23;;;2.73;;
8088;SDS011;57635;49.194;12.104;2022-07-04T09:51:49;3.33;;;3.03;;
8088;SDS011;57635;49.194;12.104;2022-07-04T09:54:22;2.47;;;2.37;;
8088;SDS011;57635;49.194;12.104;2022-07-04T09:56:53;2.77;;;2.67;;
8088;SDS011;57635;49.194;12.104;2022-07-04T09:59:23;2.00;;;1.90;;
8088;SDS011;57635;49.194;12.104;2022-07-04T10:01:51;3.83;;;2.40;;
8088;SDS011;57635;49.194;12.104;2022-07-04T10:04:19;2.87;;;2.43;;
8088;SDS011;57635;49.194;12.104;2022-07-04T10:06:51;2.33;;;2.20;;
8088;SDS011;57635;49.194;12.104;2022-07-04T10:09:20;2.20;;;2.10;;
8088;SDS011;57635;49.194;12.104;2022-07-04T10:11:49;2.70;;;2.50;;
8088;SDS011;57635;49.194;12.104;2022-07-04T10:14:17;2.27;;;2.17;;
8088;SDS011;57635;49.194;12.104;2022-07-04T10:16:45;4.83;;;2.40;;
8088;SDS011;57635;49.194;12.104;2022-07-04T10:19:13;2.50;;;2.40;;
8088;SDS011;57635;49.194;12.104;2022-07-04T10:21:42;2.80;;;2.30;;
8088;SDS011;57635;49.194;12.104;2022-07-04T10:24:11;2.63;;;2.47;;
8088;SDS011;57635;49.194;12.104;2022-07-04T10:26:40;3.60;;;1.90;;
8088;SDS011;57635;49.194;12.104;2022-07-04T10:29:10;4.70;;;2.33;;
8088;SDS011;57635;49.194;12.104;2022-07-04T10:31:38;3.17;;;2.37;;
8088;SDS011;57635;49.194;12.104;2022-07-04T10:34:07;2.47;;;2.37;;
8088;SDS011;57635;49.194;12.104;2022-07-04T10:36:35;4.43;;;2.10;;
8088;SDS011;57635;49.194;12.104;2022-07-04T10:39:03;2.23;;;2.13;;
8088;SDS011;57635;49.194;12.104;2022-07-04T10:41:31;2.20;;;1.93;;
8088;SDS011;57635;49.194;12.104;2022-07-04T10:44:02;2.60;;;2.40;;
8088;SDS011;57635;49.194;12.104;2022-07-04T10:46:37;2.07;;;1.97;;
8088;SDS011;57635;49.194;12.104;2022-07-04T10:49:18;2.70;;;2.50;;
8088;SDS011;57635;49.194;12.104;2022-07-04T10:51:52;2.53;;;2.33;;
8088;SDS011;57635;49.194;12.104;2022-07-04T10:54:22;2.80;;;1.97;;
8088;SDS011;57635;49.194;12.104;2022-07-04T10:57:06;2.10;;;2.00;;
8088;SDS011;57635;49.194;12.104;2022-07-04T10:59:38;2.47;;;2.30;;
8088;SDS011;57635;49.194;12.104;2022-07-04T11:02:23;2.07;;;1.97;;
8088;SDS011;57635;49.194;12.104;2022-07-04T11:04:55;2.10;;;2.00;;
8088;SDS011;57635;49.194;12.104;2022-07-04T11:10:24;3.17;;;2.07;;
8088;SDS011;57635;49.194;12.104;2022-07-04T11:13:03;1.77;;;1.77;;
8088;SDS011;57635;49.194;12.104;2022-07-04T11:18:29;2.00;;;1.90;;
8088;SDS011;57635;49.194;12.104;2022-07-04T11:20:58;2.83;;;2.30;;
8088;SDS011;57635;49.194;12.104;2022-07-04T11:23:26;2.23;;;2.13;;
8088;SDS011;57635;49.194;12.104;2022-07-04T11:25:54;3.97;;;3.67;;
8088;SDS011;57635;49.194;12.104;2022-07-04T11:28:25;2.30;;;1.97;;
8088;SDS011;57635;49.194;12.104;2022-07-04T11:31:13;2.70;;;2.50;;
8088;SDS011;57635;49.194;12.104;2022-07-04T11:33:41;2.70;;;2.50;;
8088;SDS011;57635;49.194;12.104;2022-07-04T11:36:11;2.47;;;2.27;;
8088;SDS011;57635;49.194;12.104;2022-07-04T11:38:43;3.53;;;1.97;;
8088;SDS011;57635;49.194;12.104;2022-07-04T11:41:12;2.13;;;2.00;;
8088;SDS011;57635;49.194;12.104;2022-07-04T11:44:01;2.10;;;2.00;;
8088;SDS011;57635;49.194;12.104;2022-07-04T11:46:50;2.00;;;1.90;;
8088;SDS011;57635;49.194;12.104;2022-07-04T11:49:18;2.40;;;2.17;;
8088;SDS011;57635;49.194;12.104;2022-07-04T11:51:47;2.30;;;2.10;;
8088;SDS011;57635;49.194;12.104;2022-07-04T11:54:15;2.20;;;2.10;;
8088;SDS011;57635;49.194;12.104;2022-07-04T11:57:12;2.73;;;2.53;;
8088;SDS011;57635;49.194;12.104;2022-07-04T11:59:42;2.57;;;1.90;;
8088;SDS011;57635;49.194;12.104;2022-07-04T12:02:13;1.87;;;1.77;;
8088;SDS011;57635;49.194;12.104;2022-07-04T12:04:42;2.30;;;2.20;;
8088;SDS011;57635;49.194;12.104;2022-07-04T12:07:11;2.63;;;2.20;;
8088;SDS011;57635;49.194;12.104;2022-07-04T12:09:40;4.90;;;2.53;;
8088;SDS011;57635;49.194;12.104;2022-07-04T12:12:10;3.60;;;2.10;;
8088;SDS011;57635;49.194;12.104;2022-07-04T12:14:39;2.20;;;2.10;;
8088;SDS011;57635;49.194;12.104;2022-07-04T12:17:16;6.83;;;2.40;;
8088;SDS011;57635;49.194;12.104;2022-07-04T12:19:49;2.37;;;2.23;;
8088;SDS011;57635;49.194;12.104;2022-07-04T12:22:25;2.03;;;1.87;;
8088;SDS011;57635;49.194;12.104;2022-07-04T12:25:01;1.83;;;1.73;;
8088;SDS011;57635;49.194;12.104;2022-07-04T12:27:32;2.37;;;2.20;;
8088;SDS011;57635;49.194;12.104;2022-07-04T12:30:02;2.10;;;2.00;;
8088;SDS011;57635;49.194;12.104;2022-07-04T12:32:45;2.67;;;2.47;;
8088;SDS011;57635;49.194;12.104;2022-07-04T12:35:34;2.27;;;2.10;;
8088;SDS011;57635;49.194;12.104;2022-07-04T12:38:03;2.60;;;2.40;;
8088;SDS011;57635;49.194;12.104;2022-07-04T12:40:32;3.63;;;2.03;;
8088;SDS011;57635;49.194;12.104;2022-07-04T12:43:06;2.50;;;2.30;;
8088;SDS011;57635;49.194;12.104;2022-07-04T12:45:41;2.97;;;2.30;;
8088;SDS011;57635;49.194;12.104;2022-07-04T12:48:19;2.07;;;1.90;;
8088;SDS011;57635;49.194;12.104;2022-07-04T12:50:50;2.90;;;2.70;;
8088;SDS011;57635;49.194;12.104;2022-07-04T12:53:19;2.60;;;2.40;;
8088;SDS011;57635;49.194;12.104;2022-07-04T12:55:47;2.40;;;2.20;;
8088;SDS011;57635;49.194;12.104;2022-07-04T12:58:16;2.33;;;2.23;;
8088;SDS011;57635;49.194;12.104;2022-07-04T13:00:44;2.93;;;2.20;;
8088;SDS011;57635;49.194;12.104;2022-07-04T13:03:12;2.77;;;2.30;;
8088;SDS011;57635;49.194;12.104;2022-07-04T13:05:42;2.37;;;2.27;;
8088;SDS011;57635;49.194;12.104;2022-07-04T13:08:10;3.63;;;2.20;;
8088;SDS011;57635;49.194;12.104;2022-07-04T13:10:38;1.90;;;1.80;;
8088;SDS011;57635;49.194;12.104;2022-07-04T13:13:06;2.27;;;2.13;;
8088;SDS011;57635;49.194;12.104;2022-07-04T13:15:35;2.97;;;2.23;;
8088;SDS011;57635;49.194;12.104;2022-07-04T13:18:03;2.30;;;2.20;;
8088;SDS011;57635;49.194;12.104;2022-07-04T13:20:31;2.57;;;2.37;;
8088;SDS011;57635;49.194;12.104;2022-07-04T13:23:01;2.00;;;1.90;;
8088;SDS011;57635;49.194;12.104;2022-07-04T13:25:37;2.20;;;2.10;;
8088;SDS011;57635;49.194;12.104;2022-07-04T13:28:05;2.00;;;1.87;;
8088;SDS011;57635;49.194;12.104;2022-07-04T13:30:33;2.13;;;1.63;;
8088;SDS011;57635;49.194;12.104;2022-07-04T13:33:01;2.30;;;2.13;;
8088;SDS011;57635;49.194;12.104;2022-07-04T13:35:30;2.50;;;2.10;;
8088;SDS011;57635;49.194;12.104;2022-07-04T13:37:58;2.10;;;2.00;;
8088;SDS011;57635;49.194;12.104;2022-07-04T13:40:28;3.40;;;1.73;;
8088;SDS011;57635;49.194;12.104;2022-07-04T13:42:56;2.13;;;2.03;;
8088;SDS011;57635;49.194;12.104;2022-07-04T13:45:27;2.63;;;2.00;;
8088;SDS011;57635;49.194;12.104;2022-07-04T13:47:55;1.87;;;1.77;;
8088;SDS011;57635;49.194;12.104;2022-07-04T13:50:23;1.90;;;1.80;;
8088;SDS011;57635;49.194;12.104;2022-07-04T13:52:51;2.07;;;1.97;;
8088;SDS011;57635;49.194;12.104;2022-07-04T13:55:20;1.90;;;1.80;;
8088;SDS011;57635;49.194;12.104;2022-07-04T13:57:49;1.73;;;1.63;;
8088;SDS011;57635;49.194;12.104;2022-07-04T14:00:18;3.42;;;1.70;;
8088;SDS011;57635;49.194;12.104;2022-07-04T14:02:46;4.60;;;2.23;;
8088;SDS011;57635;49.194;12.104;2022-07-04T14:05:14;2.07;;;1.70;;
8088;SDS011;57635;49.194;12.104;2022-07-04T14:07:42;2.03;;;1.90;;
8088;SDS011;57635;49.194;12.104;2022-07-04T14:10:10;2.23;;;1.83;;
8088;SDS011;57635;49.194;12.104;2022-07-04T14:12:39;3.20;;;1.97;;
8088;SDS011;57635;49.194;12.104;2022-07-04T14:15:09;1.60;;;1.50;;
8088;SDS011;57635;49.194;12.104;2022-07-04T14:17:37;1.97;;;1.87;;
8088;SDS011;57635;49.194;12.104;2022-07-04T14:20:06;3.47;;;2.20;;
8088;SDS011;57635;49.194;12.104;2022-07-04T14:22:36;6.13;;;2.03;;
8088;SDS011;57635;49.194;12.104;2022-07-04T14:25:05;1.67;;;1.58;;
8088;SDS011;57635;49.194;12.104;2022-07-04T14:27:35;1.65;;;1.60;;
8088;SDS011;57635;49.194;12.104;2022-07-04T14:30:04;2.22;;;1.60;;
8088;SDS011;57635;49.194;12.104;2022-07-04T14:32:36;2.20;;;1.63;;
8088;SDS011;57635;49.194;12.104;2022-07-04T14:35:05;1.52;;;1.42;;
8088;SDS011;57635;49.194;12.104;2022-07-04T14:37:37;1.67;;;1.42;;
8088;SDS011;57635;49.194;12.104;2022-07-04T14:40:06;1.70;;;1.60;;
8088;SDS011;57635;49.194;12.104;2022-07-04T14:42:35;2.17;;;1.67;;
8088;SDS011;57635;49.194;12.104;2022-07-04T14:45:03;1.85;;;1.75;;
8088;SDS011;57635;49.194;12.104;2022-07-04T14:47:33;2.00;;;1.90;;
8088;SDS011;57635;49.194;12.104;2022-07-04T14:50:03;1.70;;;1.60;;
8088;SDS011;57635;49.194;12.104;2022-07-04T14:52:31;3.22;;;2.13;;
8088;SDS011;57635;49.194;12.104;2022-07-04T14:55:00;1.65;;;1.58;;
8088;SDS011;57635;49.194;12.104;2022-07-04T14:57:28;2.78;;;1.83;;
8088;SDS011;57635;49.194;12.104;2022-07-04T14:59:56;2.70;;;2.00;;
8088;SDS011;57635;49.194;12.104;2022-07-04T15:02:24;1.83;;;1.33;;
8088;SDS011;57635;49.194;12.104;2022-07-04T15:04:52;3.78;;;1.60;;
8088;SDS011;57635;49.194;12.104;2022-07-04T15:07:22;1.27;;;1.27;;
8088;SDS011;57635;49.194;12.104;2022-07-04T15:09:50;3.30;;;1.50;;
8088;SDS011;57635;49.194;12.104;2022-07-04T15:12:18;2.97;;;1.77;;